Time;durP1;ratioP1;P1;durP2;ratioP2;P2;SDS_P1;SDS_P2;PMS_P1;PMS_P2;Temp;Humidity;BMP_temperature;BMP_pressure;BME280_temperature;BME280_humidity;BME280_pressure;Samples;Min_cycle;Max_cycle;Signal;HPM_P1;HPM_P2
2023/06/25 00:00:28;;;;;;;9.27;5.03;;;17.40;99.90;;;;;;5048512;28;20103;-58
2023/06/25 00:02:53;;;;;;;9.85;4.32;;;17.40;99.90;;;;;;5053357;28;20017;-60
2023/06/25 00:05:20;;;;;;;12.85;5.00;;;17.40;99.90;;;;;;5053098;28;20014;-60
2023/06/25 00:07:45;;;;;;;11.35;4.82;;;17.40;99.90;;;;;;5047344;28;20138;-62
2023/06/25 00:10:11;;;;;;;11.75;5.38;;;17.30;99.90;;;;;;5053278;28;20024;-59
2023/06/25 00:12:37;;;;;;;12.00;5.45;;;17.30;99.90;;;;;;5047932;28;20026;-62
2023/06/25 00:15:03;;;;;;;10.00;5.18;;;17.30;99.90;;;;;;5053616;28;20364;-61
2023/06/25 00:17:28;;;;;;;14.73;5.15;;;17.30;99.90;;;;;;5052650;28;20036;-60
2023/06/25 00:19:55;;;;;;;13.00;5.07;;;17.30;99.90;;;;;;5051945;28;20078;-54
2023/06/25 00:22:20;;;;;;;14.25;5.53;;;17.30;99.90;;;;;;5052776;28;20643;-58
2023/06/25 00:24:46;;;;;;;10.90;5.82;;;17.30;99.90;;;;;;5053575;28;20100;-59
2023/06/25 00:27:11;;;;;;;13.20;5.68;;;17.20;99.90;;;;;;5047925;28;20060;-61
2023/06/25 00:29:37;;;;;;;17.50;5.55;;;17.20;99.90;;;;;;5053266;28;20029;-62
2023/06/25 00:32:02;;;;;;;10.13;4.68;;;17.20;99.90;;;;;;5053770;28;20025;-60
2023/06/25 00:34:28;;;;;;;12.07;4.72;;;17.10;99.90;;;;;;5053160;28;20028;-60
2023/06/25 00:36:53;;;;;;;13.88;5.03;;;17.10;99.90;;;;;;5052188;28;20025;-62
2023/06/25 00:39:19;;;;;;;8.52;4.60;;;17.10;99.90;;;;;;5052470;28;20379;-61
2023/06/25 00:41:45;;;;;;;11.48;5.32;;;17.10;99.90;;;;;;5053063;28;20494;-60
2023/06/25 00:44:11;;;;;;;11.40;5.22;;;17.00;99.90;;;;;;5053186;28;20463;-59
2023/06/25 00:46:36;;;;;;;9.15;4.65;;;16.90;99.90;;;;;;5052044;28;20409;-61
2023/06/25 00:49:05;;;;;;;10.25;4.53;;;16.90;99.90;;;;;;5052929;28;20056;-62
2023/06/25 00:51:32;;;;;;;9.38;3.92;;;16.90;99.90;;;;;;5051497;28;20025;-61
2023/06/25 00:53:58;;;;;;;7.47;4.22;;;16.90;99.90;;;;;;5049211;28;20029;-61
2023/06/25 00:56:30;;;;;;;10.57;5.32;;;16.90;99.90;;;;;;5050184;28;20033;-61
2023/06/25 00:59:02;;;;;;;6.28;3.95;;;16.80;99.90;;;;;;5047180;28;20021;-61
2023/06/25 01:01:48;;;;;;;9.18;4.22;;;16.80;99.90;;;;;;5052927;28;20028;-62
2023/06/25 01:04:22;;;;;;;9.45;4.43;;;16.70;99.90;;;;;;5052830;28;20017;-61
2023/06/25 01:06:51;;;;;;;11.02;3.92;;;16.70;99.90;;;;;;5047161;28;20033;-62
2023/06/25 01:09:17;;;;;;;8.40;4.57;;;16.80;99.90;;;;;;5052728;28;20028;-62
2023/06/25 01:12:02;;;;;;;9.85;3.67;;;16.70;99.90;;;;;;5052206;28;20514;-60
2023/06/25 01:14:28;;;;;;;10.45;4.40;;;16.60;99.90;;;;;;5051679;28;20100;-60
2023/06/25 01:16:55;;;;;;;8.40;4.30;;;16.70;99.90;;;;;;5051109;28;20621;-61
2023/06/25 01:19:25;;;;;;;10.85;4.22;;;16.60;99.90;;;;;;5052656;28;20016;-59
2023/06/25 01:21:52;;;;;;;9.65;4.00;;;16.60;99.90;;;;;;5051801;28;20009;-59
2023/06/25 01:24:17;;;;;;;9.10;4.60;;;16.70;99.90;;;;;;5052404;28;20032;-55
2023/06/25 01:26:44;;;;;;;11.02;4.57;;;16.60;99.90;;;;;;5052126;28;20103;-57
2023/06/25 01:29:09;;;;;;;12.45;4.55;;;16.60;99.90;;;;;;5052645;28;20352;-58
2023/06/25 01:31:35;;;;;;;11.57;4.82;;;16.60;99.90;;;;;;5047752;28;20023;-61
2023/06/25 01:34:01;;;;;;;11.18;4.85;;;16.50;99.90;;;;;;5052170;28;20037;-61
2023/06/25 01:36:26;;;;;;;10.98;5.50;;;16.60;99.90;;;;;;5051002;28;20446;-60
2023/06/25 01:38:52;;;;;;;9.88;5.25;;;16.60;99.90;;;;;;5052115;28;20542;-59
2023/06/25 01:41:17;;;;;;;12.30;5.70;;;16.60;99.90;;;;;;5051008;28;20025;-61
2023/06/25 01:43:43;;;;;;;11.85;5.13;;;16.50;99.90;;;;;;5050603;28;20025;-58
2023/06/25 01:46:08;;;;;;;11.73;5.03;;;16.50;99.90;;;;;;5051907;28;20017;-59
2023/06/25 01:48:35;;;;;;;8.15;5.40;;;16.50;99.90;;;;;;5050732;28;20021;-59
2023/06/25 01:51:00;;;;;;;11.90;5.57;;;16.50;99.90;;;;;;5050144;28;20017;-59
2023/06/25 01:53:26;;;;;;;9.32;5.13;;;16.50;99.90;;;;;;5051933;28;20025;-61
2023/06/25 01:55:52;;;;;;;10.18;5.25;;;16.40;99.90;;;;;;5051611;28;20082;-57
2023/06/25 01:58:17;;;;;;;10.95;5.18;;;16.40;99.90;;;;;;5051959;28;20017;-55
2023/06/25 02:00:43;;;;;;;12.52;5.97;;;16.40;99.90;;;;;;5048613;28;20376;-53
2023/06/25 02:03:08;;;;;;;10.88;5.15;;;16.40;99.90;;;;;;5049784;28;20036;-58
2023/06/25 02:05:34;;;;;;;13.45;5.05;;;16.30;99.90;;;;;;5050765;28;20017;-59
2023/06/25 02:08:00;;;;;;;13.77;5.95;;;16.30;99.90;;;;;;5050139;28;20083;-56
2023/06/25 02:10:26;;;;;;;9.80;5.22;;;16.40;99.90;;;;;;5051137;28;20028;-59
2023/06/25 02:12:52;;;;;;;13.40;5.97;;;16.40;99.90;;;;;;5051572;28;20044;-59
2023/06/25 02:15:17;;;;;;;9.27;5.50;;;16.30;99.90;;;;;;5051527;28;20471;-59
2023/06/25 02:17:43;;;;;;;10.15;6.10;;;16.30;99.90;;;;;;5050460;28;20051;-57
2023/06/25 02:20:09;;;;;;;12.82;5.55;;;16.40;99.90;;;;;;5051416;28;20025;-57
2023/06/25 02:22:34;;;;;;;11.85;5.30;;;16.40;99.90;;;;;;5050274;28;20043;-54
2023/06/25 02:25:00;;;;;;;10.45;5.90;;;16.30;99.90;;;;;;5046375;28;20025;-60
2023/06/25 02:27:25;;;;;;;13.50;5.70;;;16.40;99.90;;;;;;5049986;28;20421;-53
2023/06/25 02:29:51;;;;;;;11.98;6.00;;;16.40;99.90;;;;;;5051372;28;20032;-54
2023/06/25 02:32:16;;;;;;;15.85;5.68;;;16.30;99.90;;;;;;5051425;28;20048;-56
2023/06/25 02:34:42;;;;;;;9.15;5.00;;;16.30;99.90;;;;;;5050342;28;20107;-53
2023/06/25 02:37:15;;;;;;;11.70;5.70;;;16.30;99.90;;;;;;5050993;28;20134;-56
2023/06/25 02:39:41;;;;;;;10.55;5.88;;;16.20;99.90;;;;;;5049381;28;20016;-59
2023/06/25 02:42:07;;;;;;;12.18;6.15;;;16.20;99.90;;;;;;5051632;28;20506;-53
2023/06/25 02:44:32;;;;;;;12.15;6.00;;;16.20;99.90;;;;;;5050494;28;20020;-57
2023/06/25 02:46:58;;;;;;;12.27;5.07;;;16.20;99.90;;;;;;5050100;28;20024;-58
2023/06/25 02:49:23;;;;;;;12.38;5.55;;;16.20;99.90;;;;;;5051005;28;20033;-61
2023/06/25 02:51:49;;;;;;;8.57;5.22;;;16.20;99.90;;;;;;5048880;28;20040;-58
2023/06/25 02:54:14;;;;;;;8.43;5.88;;;16.20;99.90;;;;;;5047247;28;20379;-61
2023/06/25 02:56:40;;;;;;;11.32;5.63;;;16.10;99.90;;;;;;5050791;28;20025;-58
2023/06/25 02:59:05;;;;;;;9.23;5.50;;;16.20;99.90;;;;;;5051159;28;20048;-58
2023/06/25 03:01:31;;;;;;;15.35;6.75;;;16.10;99.90;;;;;;5049851;28;20543;-59
2023/06/25 03:03:56;;;;;;;11.90;6.38;;;16.10;99.90;;;;;;5050881;28;20100;-59
2023/06/25 03:06:22;;;;;;;14.13;7.10;;;16.10;99.90;;;;;;5049393;28;20035;-57
2023/06/25 03:08:47;;;;;;;16.80;7.55;;;16.10;99.90;;;;;;5050660;28;20033;-57
2023/06/25 03:11:14;;;;;;;12.45;6.78;;;16.10;99.90;;;;;;5044593;28;20033;-57
2023/06/25 03:13:39;;;;;;;12.77;7.18;;;16.10;99.90;;;;;;5050808;28;20017;-59
2023/06/25 03:16:05;;;;;;;14.30;7.20;;;16.00;99.90;;;;;;5050754;28;20471;-55
2023/06/25 03:18:30;;;;;;;11.70;7.72;;;16.00;99.90;;;;;;5050807;28;20029;-59
2023/06/25 03:20:56;;;;;;;11.65;7.15;;;16.00;99.90;;;;;;5049880;28;20052;-59
2023/06/25 03:23:22;;;;;;;18.23;7.53;;;16.00;99.90;;;;;;5054218;28;20021;-57
2023/06/25 03:25:47;;;;;;;11.15;6.60;;;16.00;99.90;;;;;;5054535;28;20035;-59
2023/06/25 03:28:13;;;;;;;20.40;7.93;;;16.00;99.90;;;;;;5054654;28;20029;-57
2023/06/25 03:30:38;;;;;;;15.23;7.50;;;16.00;99.90;;;;;;5053685;28;20021;-59
2023/06/25 03:33:04;;;;;;;12.10;7.68;;;16.00;99.90;;;;;;5054391;28;20016;-61
2023/06/25 03:35:29;;;;;;;16.15;8.52;;;16.00;99.90;;;;;;5053049;28;20083;-55
2023/06/25 03:37:55;;;;;;;14.98;7.63;;;16.00;99.90;;;;;;5054072;28;20035;-58
2023/06/25 03:40:20;;;;;;;12.55;7.50;;;16.00;99.90;;;;;;5051178;28;20024;-59
2023/06/25 03:42:46;;;;;;;13.18;7.78;;;16.00;99.90;;;;;;5054141;28;20100;-61
2023/06/25 03:45:15;;;;;;;17.17;8.95;;;16.00;99.90;;;;;;5054335;28;20017;-58
2023/06/25 03:47:41;;;;;;;16.15;8.18;;;15.90;99.90;;;;;;5054006;28;20048;-60
2023/06/25 03:50:08;;;;;;;11.10;7.45;;;16.00;99.90;;;;;;5053461;28;20051;-59
2023/06/25 03:52:33;;;;;;;14.63;8.60;;;16.00;99.90;;;;;;5053794;28;20106;-60
2023/06/25 03:54:59;;;;;;;15.88;8.15;;;16.00;99.90;;;;;;5048757;28;20060;-59
2023/06/25 03:57:24;;;;;;;15.77;8.65;;;16.10;99.90;;;;;;5051919;28;20055;-57
2023/06/25 03:59:50;;;;;;;15.13;8.27;;;16.00;99.90;;;;;;5053967;28;20165;-58
2023/06/25 04:02:15;;;;;;;20.02;7.90;;;16.10;99.90;;;;;;5053186;28;20421;-59
2023/06/25 04:04:41;;;;;;;18.67;8.68;;;16.10;99.90;;;;;;5053831;28;20422;-55
2023/06/25 04:07:06;;;;;;;13.00;8.23;;;16.10;99.90;;;;;;5052762;28;20028;-57
2023/06/25 04:09:32;;;;;;;13.80;8.57;;;16.10;99.90;;;;;;5053739;28;20262;-58
2023/06/25 04:11:58;;;;;;;16.23;9.00;;;16.10;99.90;;;;;;5051079;28;20415;-61
2023/06/25 04:14:23;;;;;;;14.55;9.10;;;16.20;99.90;;;;;;5053645;28;20113;-60
2023/06/25 04:16:49;;;;;;;15.68;8.75;;;16.20;99.90;;;;;;5053474;28;20021;-57
2023/06/25 04:19:14;;;;;;;13.90;8.23;;;16.20;99.90;;;;;;5052181;28;20483;-62
2023/06/25 04:21:40;;;;;;;16.50;9.15;;;16.30;99.90;;;;;;5053151;28;20467;-62
2023/06/25 04:24:06;;;;;;;13.93;8.55;;;16.30;99.90;;;;;;5053247;28;20029;-61
2023/06/25 04:26:31;;;;;;;18.15;9.50;;;16.40;99.90;;;;;;5052011;28;20071;-59
2023/06/25 04:28:57;;;;;;;16.02;9.02;;;16.40;99.90;;;;;;5050982;28;20032;-59
2023/06/25 04:31:23;;;;;;;16.92;7.63;;;16.50;99.90;;;;;;5050331;28;20075;-59
2023/06/25 04:33:49;;;;;;;14.05;8.25;;;16.60;99.90;;;;;;5052534;28;20013;-57
2023/06/25 04:36:15;;;;;;;17.05;8.63;;;16.60;99.90;;;;;;5052062;28;20053;-56
2023/06/25 04:38:40;;;;;;;13.27;8.38;;;16.70;99.90;;;;;;5053250;28;20055;-59
2023/06/25 04:41:06;;;;;;;15.07;8.23;;;16.70;99.90;;;;;;5052500;28;20479;-57
2023/06/25 04:43:31;;;;;;;17.52;8.10;;;16.80;99.90;;;;;;5053058;28;20096;-61
2023/06/25 04:45:57;;;;;;;15.73;8.85;;;16.80;99.90;;;;;;5053069;28;20049;-57
2023/06/25 04:48:22;;;;;;;18.08;8.77;;;17.00;99.90;;;;;;5053197;28;20029;-60
2023/06/25 04:50:48;;;;;;;13.80;8.95;;;17.00;99.90;;;;;;5050938;28;20041;-62
2023/06/25 04:53:14;;;;;;;13.98;8.85;;;17.00;99.90;;;;;;5052970;28;20025;-60
2023/06/25 04:55:39;;;;;;;18.23;8.95;;;17.10;99.90;;;;;;5052955;28;20021;-59
2023/06/25 04:58:04;;;;;;;17.90;10.18;;;17.10;99.90;;;;;;5052943;28;20031;-60
2023/06/25 05:00:30;;;;;;;16.33;9.35;;;17.20;99.90;;;;;;5051342;28;20023;-61
2023/06/25 05:02:56;;;;;;;17.05;9.10;;;17.30;99.90;;;;;;5051420;28;20029;-61
2023/06/25 05:05:21;;;;;;;15.60;8.63;;;17.30;99.90;;;;;;5051232;28;20033;-59
2023/06/25 05:07:47;;;;;;;15.68;8.88;;;17.40;99.90;;;;;;5052598;28;20063;-57
2023/06/25 05:10:15;;;;;;;16.02;9.15;;;17.40;99.90;;;;;;5052195;28;20032;-58
2023/06/25 05:12:41;;;;;;;15.45;9.15;;;17.50;99.90;;;;;;5052636;28;20035;-57
2023/06/25 05:15:06;;;;;;;16.92;9.65;;;17.50;99.90;;;;;;5052782;28;20025;-61
2023/06/25 05:17:32;;;;;;;16.73;9.40;;;17.50;99.90;;;;;;5051253;28;20033;-59
2023/06/25 05:19:58;;;;;;;14.38;8.75;;;17.60;99.90;;;;;;5051710;28;20029;-61
2023/06/25 05:22:23;;;;;;;15.40;8.60;;;17.60;99.90;;;;;;5052387;28;20092;-62
2023/06/25 05:24:49;;;;;;;15.63;9.30;;;17.80;99.90;;;;;;5052548;28;20063;-60
2023/06/25 05:27:14;;;;;;;15.07;9.55;;;17.80;99.90;;;;;;5051830;28;20083;-62
2023/06/25 05:29:40;;;;;;;14.18;8.43;;;17.90;99.90;;;;;;5052036;28;20024;-61
2023/06/25 05:32:05;;;;;;;13.18;8.50;;;18.00;99.90;;;;;;5052643;28;20029;-59
2023/06/25 05:34:31;;;;;;;13.02;9.20;;;18.00;99.90;;;;;;5051872;28;20013;-56
2023/06/25 05:36:57;;;;;;;14.73;9.10;;;18.10;99.90;;;;;;5051499;28;20060;-61
2023/06/25 05:39:28;;;;;;;14.80;8.55;;;18.20;99.90;;;;;;5052304;28;20024;-61
2023/06/25 05:41:55;;;;;;;14.15;9.25;;;18.20;99.90;;;;;;5052184;28;20104;-60
2023/06/25 05:44:21;;;;;;;12.85;8.73;;;18.30;99.90;;;;;;5050723;28;20067;-60
2023/06/25 05:46:46;;;;;;;15.65;9.07;;;18.40;99.90;;;;;;5051808;28;20067;-59
2023/06/25 05:49:12;;;;;;;13.13;8.60;;;18.40;99.90;;;;;;5052081;28;20062;-61
2023/06/25 05:51:37;;;;;;;14.63;7.60;;;18.50;99.90;;;;;;5051150;28;20051;-61
2023/06/25 05:54:03;;;;;;;21.25;8.52;;;18.60;99.90;;;;;;5051819;28;20025;-60
2023/06/25 05:56:28;;;;;;;11.10;7.85;;;18.70;99.90;;;;;;5051707;28;20021;-60
2023/06/25 05:58:54;;;;;;;15.88;9.05;;;18.70;99.90;;;;;;5051290;28;20455;-61
2023/06/25 06:01:21;;;;;;;16.25;8.75;;;18.90;99.90;;;;;;5051436;28;20070;-61
2023/06/25 06:03:47;;;;;;;14.98;8.80;;;18.90;99.90;;;;;;5051674;28;20013;-57
2023/06/25 06:06:13;;;;;;;15.15;9.13;;;19.00;99.90;;;;;;5050708;28;20120;-57
2023/06/25 06:08:38;;;;;;;13.73;8.23;;;19.10;99.90;;;;;;5051457;28;20031;-59
2023/06/25 06:11:04;;;;;;;12.63;8.48;;;19.20;99.90;;;;;;5043127;28;20116;-57
2023/06/25 06:13:29;;;;;;;12.98;8.57;;;19.30;99.90;;;;;;5051363;28;20024;-60
2023/06/25 06:15:55;;;;;;;13.30;8.57;;;19.40;99.90;;;;;;5050001;28;20479;-58
2023/06/25 06:18:21;;;;;;;11.65;7.88;;;19.50;99.90;;;;;;5051419;28;20047;-59
2023/06/25 06:20:46;;;;;;;14.63;8.55;;;19.60;99.90;;;;;;5050688;28;20455;-58
2023/06/25 06:23:12;;;;;;;14.15;8.23;;;19.80;99.90;;;;;;5051362;28;20025;-60
2023/06/25 06:25:37;;;;;;;13.88;8.38;;;19.80;99.90;;;;;;5050701;28;20154;-59
2023/06/25 06:28:03;;;;;;;10.90;7.63;;;19.90;99.90;;;;;;5045363;28;20074;-61
2023/06/25 06:30:28;;;;;;;11.77;7.03;;;20.00;99.90;;;;;;5051333;28;20024;-61
2023/06/25 06:32:54;;;;;;;16.70;8.05;;;20.10;99.90;;;;;;5051375;28;20021;-61
2023/06/25 06:35:20;;;;;;;18.08;7.47;;;20.10;99.90;;;;;;5051611;28;20376;-58
2023/06/25 06:37:46;;;;;;;13.85;7.85;;;20.20;99.90;;;;;;5050318;28;20032;-59
2023/06/25 06:40:11;;;;;;;11.77;7.28;;;20.30;99.90;;;;;;5051273;28;20109;-60
2023/06/25 06:42:37;;;;;;;14.43;7.40;;;20.40;99.90;;;;;;5051193;28;20013;-56
2023/06/25 06:45:03;;;;;;;12.48;7.82;;;20.50;99.90;;;;;;5048919;28;20466;-57
2023/06/25 06:47:28;;;;;;;13.93;7.75;;;20.60;99.90;;;;;;5050838;28;20028;-56
2023/06/25 06:49:54;;;;;;;11.30;7.53;;;20.60;99.90;;;;;;5050516;28;20104;-56
2023/06/25 06:52:24;;;;;;;16.27;7.72;;;20.70;99.90;;;;;;5041908;28;20040;-59
2023/06/25 06:54:50;;;;;;;12.93;7.57;;;20.80;99.90;;;;;;5051367;28;20024;-61
2023/06/25 06:57:15;;;;;;;13.05;8.18;;;20.80;99.90;;;;;;5055141;28;20036;-56
2023/06/25 06:59:41;;;;;;;11.88;7.43;;;20.80;99.90;;;;;;5055132;28;20075;-59
2023/06/25 07:02:06;;;;;;;11.15;7.25;;;21.00;99.90;;;;;;5053493;28;20032;-59
2023/06/25 07:04:32;;;;;;;15.02;8.18;;;21.10;99.90;;;;;;5054974;28;20375;-60
2023/06/25 07:06:58;;;;;;;12.70;7.55;;;21.10;99.90;;;;;;5054159;28;20029;-59
2023/06/25 07:09:25;;;;;;;15.90;7.63;;;21.30;99.90;;;;;;5054993;28;20100;-60
2023/06/25 07:11:51;;;;;;;10.02;7.07;;;21.30;99.90;;;;;;5054292;28;20025;-59
2023/06/25 07:14:16;;;;;;;10.88;7.35;;;21.40;99.90;;;;;;5053872;28;20459;-59
2023/06/25 07:16:42;;;;;;;12.73;7.50;;;21.60;99.90;;;;;;5054323;28;20348;-57
2023/06/25 07:19:08;;;;;;;11.00;7.47;;;21.70;99.90;;;;;;5054933;28;20445;-57
2023/06/25 07:21:33;;;;;;;11.93;7.70;;;21.80;99.90;;;;;;5053275;28;20467;-57
2023/06/25 07:23:59;;;;;;;11.65;6.95;;;21.90;99.90;;;;;;5054689;28;20025;-58
2023/06/25 07:26:25;;;;;;;10.52;6.80;;;22.00;99.90;;;;;;5054597;28;20029;-59
2023/06/25 07:28:50;;;;;;;9.95;6.20;;;22.10;99.90;;;;;;5054646;28;20021;-56
2023/06/25 07:31:16;;;;;;;9.27;6.50;;;22.20;99.90;;;;;;5053674;28;20048;-57
2023/06/25 07:33:41;;;;;;;9.95;6.60;;;22.40;99.90;;;;;;5054301;28;20064;-61
2023/06/25 07:36:07;;;;;;;11.13;6.68;;;22.50;99.90;;;;;;5053394;28;20025;-59
2023/06/25 07:38:32;;;;;;;14.25;6.78;;;22.50;99.90;;;;;;5054302;28;20028;-57
2023/06/25 07:40:58;;;;;;;10.48;6.72;;;22.50;99.90;;;;;;5054407;28;20025;-60
2023/06/25 07:43:23;;;;;;;7.80;6.28;;;22.60;99.90;;;;;;5054286;28;20021;-61
2023/06/25 07:45:49;;;;;;;9.50;6.50;;;22.80;99.90;;;;;;5053280;28;20028;-60
2023/06/25 07:48:14;;;;;;;8.52;6.55;;;22.90;99.90;;;;;;5047042;28;20387;-60
2023/06/25 07:50:40;;;;;;;10.88;6.28;;;23.00;99.90;;;;;;5046869;28;20021;-57
2023/06/25 07:53:05;;;;;;;12.40;6.97;;;23.00;99.90;;;;;;5053176;28;20462;-56
2023/06/25 07:55:38;;;;;;;10.25;6.70;;;23.20;99.90;;;;;;5053944;28;20467;-56
2023/06/25 07:58:04;;;;;;;12.02;6.47;;;23.30;99.90;;;;;;5053903;28;20463;-61
2023/06/25 08:00:30;;;;;;;9.27;6.30;;;23.30;99.90;;;;;;5054052;28;20017;-58
2023/06/25 08:02:55;;;;;;;13.85;6.63;;;23.40;99.90;;;;;;5051091;28;20028;-60
2023/06/25 08:05:21;;;;;;;12.40;7.05;;;23.50;99.90;;;;;;5053126;28;20032;-57
2023/06/25 08:07:46;;;;;;;9.18;6.03;;;23.60;99.90;;;;;;5051373;28;20029;-61
2023/06/25 08:10:12;;;;;;;10.60;6.53;;;23.70;99.90;;;;;;5053888;28;20020;-58
2023/06/25 08:12:37;;;;;;;8.38;5.95;;;23.80;99.90;;;;;;5051832;28;20498;-54
2023/06/25 08:15:04;;;;;;;13.20;6.25;;;24.10;99.90;;;;;;5052266;28;20025;-53
2023/06/25 08:17:30;;;;;;;7.40;5.72;;;24.00;99.90;;;;;;5051290;28;20013;-58
2023/06/25 08:19:55;;;;;;;10.38;5.97;;;24.10;99.90;;;;;;5048659;28;20459;-58
2023/06/25 08:22:21;;;;;;;11.02;6.43;;;24.30;99.90;;;;;;5052759;28;20108;-58
2023/06/25 08:24:46;;;;;;;8.55;6.22;;;24.40;99.90;;;;;;5053681;28;20100;-59
2023/06/25 08:27:12;;;;;;;8.90;5.90;;;24.50;99.90;;;;;;5053447;28;20436;-60
2023/06/25 08:29:37;;;;;;;8.07;5.40;;;24.60;99.90;;;;;;5052239;28;20033;-60
2023/06/25 08:32:03;;;;;;;9.27;5.70;;;24.70;99.90;;;;;;5053653;28;20103;-61
2023/06/25 08:34:28;;;;;;;15.48;6.63;;;24.80;99.90;;;;;;5053328;28;20100;-59
2023/06/25 08:36:55;;;;;;;9.13;5.75;;;24.90;99.90;;;;;;5053164;28;20066;-60
2023/06/25 08:39:21;;;;;;;9.35;5.78;;;25.00;99.90;;;;;;5053535;28;20017;-59
2023/06/25 08:41:48;;;;;;;10.82;5.50;;;25.10;99.90;;;;;;5053163;28;20017;-61
2023/06/25 08:44:14;;;;;;;9.45;6.55;;;25.20;99.90;;;;;;5053175;28;20429;-59
2023/06/25 08:46:47;;;;;;;9.57;5.55;;;25.30;99.90;;;;;;5052973;28;20024;-58
2023/06/25 08:49:14;;;;;;;8.38;6.03;;;25.50;99.90;;;;;;5053254;28;20052;-59
2023/06/25 08:51:40;;;;;;;8.10;5.38;;;25.60;99.90;;;;;;5053127;28;20021;-59
2023/06/25 08:54:07;;;;;;;8.70;5.50;;;25.70;99.90;;;;;;5053071;28;20025;-58
2023/06/25 08:56:33;;;;;;;9.90;5.45;;;25.80;99.90;;;;;;5052552;28;20020;-56
2023/06/25 08:58:59;;;;;;;9.43;5.40;;;26.00;99.90;;;;;;5053027;28;20021;-58
2023/06/25 09:01:24;;;;;;;15.23;5.30;;;26.10;99.90;;;;;;5053010;28;20455;-58
2023/06/25 09:03:52;;;;;;;9.82;5.28;;;26.20;99.90;;;;;;5052821;28;20025;-56
2023/06/25 09:06:18;;;;;;;9.90;6.13;;;26.20;99.90;;;;;;5052838;28;20031;-57
2023/06/25 09:08:44;;;;;;;8.88;5.95;;;26.30;99.90;;;;;;5052869;28;20021;-58
2023/06/25 09:11:10;;;;;;;8.82;5.63;;;26.50;99.90;;;;;;5052841;28;20103;-59
2023/06/25 09:13:38;;;;;;;10.40;5.32;;;26.50;99.90;;;;;;5052750;28;20500;-59
2023/06/25 09:16:06;;;;;;;9.38;5.60;;;26.70;99.90;;;;;;5052544;28;20085;-60
2023/06/25 09:18:32;;;;;;;7.30;4.93;;;26.80;99.90;;;;;;5051556;28;20074;-59
2023/06/25 09:21:06;;;;;;;9.05;5.32;;;26.90;99.90;;;;;;5052706;28;20024;-57
2023/06/25 09:23:32;;;;;;;;;;;27.10;99.90;;;;;;5052837;28;20503;-59
2023/06/25 09:25:58;;;;;;;6.95;5.00;;;27.20;99.90;;;;;;5052261;28;19912;-59
2023/06/25 09:28:24;;;;;;;7.03;5.30;;;27.20;99.90;;;;;;5052472;28;20025;-59
2023/06/25 09:30:55;;;;;;;8.57;5.05;;;27.20;99.90;;;;;;5052585;28;20017;-58
2023/06/25 09:33:21;;;;;;;8.27;5.35;;;27.30;99.90;;;;;;5052414;28;20013;-60
2023/06/25 09:35:46;;;;;;;7.55;5.22;;;27.50;99.90;;;;;;5052232;28;20029;-60
2023/06/25 09:38:12;;;;;;;8.10;5.22;;;27.60;99.90;;;;;;5052001;28;20032;-57
2023/06/25 09:40:37;;;;;;;9.38;5.55;;;27.70;99.90;;;;;;5052162;28;20036;-59
2023/06/25 09:43:06;;;;;;;9.32;5.10;;;27.80;99.90;;;;;;5052166;28;20029;-60
2023/06/25 09:45:33;;;;;;;7.30;5.15;;;28.00;99.90;;;;;;5051996;28;20021;-59
2023/06/25 09:47:58;;;;;;;8.52;4.95;;;28.20;99.90;;;;;;5051968;28;20100;-59
2023/06/25 09:50:32;;;;;;;6.45;4.72;;;28.30;99.90;;;;;;5051999;28;20446;-61
2023/06/25 09:52:59;;;;;;;8.13;5.35;;;28.50;99.90;;;;;;5051884;28;20044;-61
2023/06/25 09:55:27;;;;;;;10.30;5.40;;;28.70;99.60;;;;;;5052091;28;20029;-59
2023/06/25 09:57:54;;;;;;;8.23;5.70;;;28.90;97.70;;;;;;5051563;28;20028;-57
2023/06/25 10:00:21;;;;;;;6.93;5.00;;;29.00;99.50;;;;;;5051965;28;20021;-57
2023/06/25 10:02:47;;;;;;;8.68;6.00;;;29.10;97.20;;;;;;5050492;28;20013;-59
2023/06/25 10:05:13;;;;;;;6.40;4.57;;;29.20;99.90;;;;;;5051675;28;20059;-56
2023/06/25 10:07:40;;;;;;;6.40;4.88;;;29.30;98.00;;;;;;5051496;28;20519;-61
2023/06/25 10:10:06;;;;;;;6.55;5.15;;;29.40;95.40;;;;;;5051752;28;20052;-59
2023/06/25 10:12:33;;;;;;;8.52;5.05;;;29.40;94.30;;;;;;5051698;28;20045;-58
2023/06/25 10:15:04;;;;;;;6.10;4.38;;;29.50;93.60;;;;;;5051714;28;20031;-62
2023/06/25 10:17:30;;;;;;;6.53;4.85;;;29.60;94.00;;;;;;5051484;28;20371;-60
2023/06/25 10:19:57;;;;;;;7.32;5.07;;;29.70;92.50;;;;;;5051585;28;20021;-60
2023/06/25 10:22:24;;;;;;;5.70;4.55;;;29.80;94.10;;;;;;5051660;28;20032;-59
2023/06/25 10:24:51;;;;;;;6.05;4.75;;;29.90;95.70;;;;;;5051484;28;20020;-60
2023/06/25 10:27:26;;;;;;;6.60;4.57;;;30.20;94.50;;;;;;5051418;28;20055;-59
2023/06/25 10:29:53;;;;;;;7.10;4.43;;;30.40;92.10;;;;;;5051127;28;20032;-57
2023/06/25 10:32:23;;;;;;;6.50;4.78;;;30.60;93.30;;;;;;5051495;28;20025;-57
2023/06/25 10:34:56;;;;;;;5.65;4.65;;;30.70;92.60;;;;;;5051385;28;20025;-57
2023/06/25 10:37:28;;;;;;;4.95;4.00;;;31.00;94.10;;;;;;5051195;28;20021;-59
2023/06/25 10:40:05;;;;;;;15.27;4.85;;;31.00;90.30;;;;;;5051255;28;20024;-60
2023/06/25 10:42:31;;;;;;;6.68;4.35;;;31.00;92.10;;;;;;5051083;28;20047;-62
2023/06/25 10:44:59;;;;;;;10.05;4.88;;;31.10;88.80;;;;;;5051281;28;20493;-59
2023/06/25 10:47:24;;;;;;;6.28;4.47;;;31.30;91.10;;;;;;5051195;28;20028;-61
2023/06/25 10:49:50;;;;;;;8.05;4.47;;;31.20;91.90;;;;;;5051322;28;20359;-58
2023/06/25 10:52:17;;;;;;;8.68;4.90;;;31.30;88.90;;;;;;5051417;28;20033;-61
2023/06/25 10:54:42;;;;;;;6.10;4.47;;;31.10;88.10;;;;;;5049032;28;20021;-59
2023/06/25 10:57:10;;;;;;;6.82;4.88;;;31.40;86.20;;;;;;5051057;28;20028;-59
2023/06/25 10:59:36;;;;;;;6.72;4.97;;;31.40;89.50;;;;;;5051139;28;20079;-60
2023/06/25 11:02:14;;;;;;;7.20;4.90;;;31.60;86.60;;;;;;5051522;28;20471;-60
2023/06/25 11:04:40;;;;;;;5.85;4.60;;;31.80;83.60;;;;;;5051138;28;20017;-60
2023/06/25 11:07:05;;;;;;;7.25;4.75;;;31.90;90.00;;;;;;5050993;28;20420;-55
2023/06/25 11:09:31;;;;;;;6.80;4.35;;;31.90;89.20;;;;;;5051264;28;20025;-61
2023/06/25 11:11:56;;;;;;;8.35;4.30;;;31.70;84.40;;;;;;5051043;28;20021;-61
2023/06/25 11:14:23;;;;;;;6.15;4.35;;;31.80;85.80;;;;;;5051005;28;20114;-60
2023/06/25 11:16:49;;;;;;;5.78;4.53;;;32.10;84.00;;;;;;5050794;28;20028;-59
2023/06/25 11:19:14;;;;;;;6.55;4.38;;;32.00;82.90;;;;;;5051052;28;20028;-61
2023/06/25 11:21:40;;;;;;;6.70;4.60;;;32.20;79.40;;;;;;5050908;28;20537;-60
2023/06/25 11:24:09;;;;;;;5.95;4.32;;;32.20;82.90;;;;;;5050918;28;20028;-61
2023/06/25 11:26:42;;;;;;;7.45;4.90;;;32.00;85.50;;;;;;5050843;28;20449;-59
2023/06/25 11:29:09;;;;;;;10.00;4.70;;;32.00;84.10;;;;;;5050937;28;20025;-58
2023/06/25 11:31:44;;;;;;;4.93;4.25;;;32.10;81.50;;;;;;5050880;28;20017;-57
2023/06/25 11:34:23;;;;;;;5.50;3.92;;;32.40;74.10;;;;;;5050845;28;20645;-57
2023/06/25 11:36:49;;;;;;;4.60;3.85;;;32.20;87.40;;;;;;5050569;28;20040;-60
2023/06/25 11:39:16;;;;;;;5.53;4.18;;;32.40;78.10;;;;;;5050754;28;20025;-57
2023/06/25 11:41:43;;;;;;;4.57;4.05;;;32.70;76.00;;;;;;5051278;28;20025;-55
2023/06/25 11:44:18;;;;;;;5.70;4.55;;;33.00;71.70;;;;;;5054382;28;20100;-62
2023/06/25 11:46:52;;;;;;;7.10;4.80;;;32.70;77.10;;;;;;5054156;28;20033;-59
2023/06/25 11:49:19;;;;;;;6.38;4.32;;;32.40;77.70;;;;;;5054494;28;20033;-59
2023/06/25 11:51:52;;;;;;;6.18;4.70;;;32.60;78.10;;;;;;5054216;28;20478;-62
2023/06/25 11:54:18;;;;;;;6.60;4.82;;;32.50;78.40;;;;;;5054346;28;20032;-59
2023/06/25 11:56:43;;;;;;;4.63;4.15;;;32.60;81.20;;;;;;5053897;28;20040;-57
2023/06/25 11:59:09;;;;;;;5.82;4.47;;;33.00;72.40;;;;;;5054288;28;20032;-61
2023/06/25 12:01:34;;;;;;;5.65;4.47;;;32.70;75.20;;;;;;5053865;28;20017;-59
2023/06/25 12:04:01;;;;;;;6.53;4.57;;;32.90;74.10;;;;;;5053637;28;20023;-60
2023/06/25 12:06:27;;;;;;;9.07;4.55;;;32.80;75.00;;;;;;5053414;28;20036;-61
2023/06/25 12:08:52;;;;;;;5.78;3.95;;;33.40;68.20;;;;;;5053604;28;20029;-61
2023/06/25 12:11:18;;;;;;;6.55;4.57;;;33.00;73.80;;;;;;5053650;28;20029;-61
2023/06/25 12:13:43;;;;;;;5.68;3.90;;;33.10;73.20;;;;;;5053569;28;20032;-62
2023/06/25 12:16:09;;;;;;;9.65;4.85;;;33.40;75.60;;;;;;5053700;28;20567;-61
2023/06/25 12:18:35;;;;;;;4.60;3.53;;;33.50;71.80;;;;;;5053656;28;20467;-61
2023/06/25 12:21:00;;;;;;;4.40;3.97;;;33.60;70.60;;;;;;5053887;28;20371;-61
2023/06/25 12:23:26;;;;;;;6.93;3.92;;;33.70;73.00;;;;;;5053787;28;20093;-59
2023/06/25 12:25:51;;;;;;;9.02;4.95;;;34.20;68.30;;;;;;5053669;28;20489;-57
2023/06/25 12:28:17;;;;;;;6.70;4.80;;;33.70;71.20;;;;;;5053795;28;20021;-61
2023/06/25 12:30:42;;;;;;;3.95;3.55;;;33.40;68.90;;;;;;5053608;28;20036;-59
2023/06/25 12:33:08;;;;;;;4.95;3.92;;;33.70;70.00;;;;;;5053473;28;20032;-59
2023/06/25 12:35:34;;;;;;;5.63;4.47;;;34.10;71.60;;;;;;5053353;28;20021;-60